Terminal Aerodrome Forecast
Issued by NWS Portland, OR

Home | Current Version | Previous Version | Text Only | Print | Product List | Glossary On
Versions: 1 2 3 4 5 6 7 8 9 10 11 12 13 14 15 16 17 18 19 20 21 22 23 24 25 26 27 28 29 30 31 32 33 34 35 36
000
FTUS46 KPQR 281137
TAFHIO
TAF
KHIO 281137Z 2812/2912 VRB03KT P6SM BKN050
     FM281500 17004KT P6SM -RA SCT015 OVC050
     FM282100 27009KT P6SM -SHRA SCT025 OVC045
     FM290300 31007KT P6SM VCSH FEW030 BKN045
     FM290600 28004KT P6SM SCT015 BKN040=

USA.gov is the U.S. government's official web portal to all federal, state and local government web resources and services.